sensor_id;sensor_type;location;lat;lon;timestamp;pressure;altitude;pressure_sealevel;temperature;humidity
76122;BME280;64853;53.200;6.080;2023-04-25T00:00:41;100985.16;;;17.91;41.93
76122;BME280;64853;53.200;6.080;2023-04-25T00:05:32;100983.50;;;17.90;41.79
76122;BME280;64853;53.200;6.080;2023-04-25T00:10:25;100986.03;;;17.87;41.76
76122;BME280;64853;53.200;6.080;2023-04-25T00:15:16;100988.78;;;17.87;42.01
76122;BME280;64853;53.200;6.080;2023-04-25T00:20:09;100990.72;;;17.81;41.89
76122;BME280;64853;53.200;6.080;2023-04-25T00:25:01;100997.59;;;17.83;41.91
76122;BME280;64853;53.200;6.080;2023-04-25T00:29:54;100996.22;;;17.81;42.09
76122;BME280;64853;53.200;6.080;2023-04-25T00:34:46;100998.44;;;17.79;42.10
76122;BME280;64853;53.200;6.080;2023-04-25T00:39:37;100995.69;;;17.79;41.97
76122;BME280;64853;53.200;6.080;2023-04-25T00:44:29;101001.78;;;17.76;42.07
76122;BME280;64853;53.200;6.080;2023-04-25T00:49:23;100991.84;;;17.75;41.97
76122;BME280;64853;53.200;6.080;2023-04-25T00:54:15;100999.56;;;17.73;42.04
76122;BME280;64853;53.200;6.080;2023-04-25T00:59:07;100999.03;;;17.71;42.19
76122;BME280;64853;53.200;6.080;2023-04-25T01:04:00;100996.56;;;17.69;41.93
76122;BME280;64853;53.200;6.080;2023-04-25T01:08:53;101007.88;;;17.67;41.93
76122;BME280;64853;53.200;6.080;2023-04-25T01:13:45;101007.03;;;17.67;42.05
76122;BME280;64853;53.200;6.080;2023-04-25T01:18:38;101007.31;;;17.65;41.89
76122;BME280;64853;53.200;6.080;2023-04-25T01:23:31;101013.94;;;17.64;41.89
76122;BME280;64853;53.200;6.080;2023-04-25T01:28:23;101012.84;;;17.60;41.70
76122;BME280;64853;53.200;6.080;2023-04-25T01:33:15;101022.19;;;17.59;41.65
76122;BME280;64853;53.200;6.080;2023-04-25T01:38:07;101019.72;;;17.58;41.44
76122;BME280;64853;53.200;6.080;2023-04-25T01:43:00;100999.41;;;17.38;41.18
76122;BME280;64853;53.200;6.080;2023-04-25T01:47:51;101035.19;;;17.54;41.03
76122;BME280;64853;53.200;6.080;2023-04-25T01:52:43;101029.41;;;17.50;40.87
76122;BME280;64853;53.200;6.080;2023-04-25T01:57:34;101033.53;;;17.47;41.07
76122;BME280;64853;53.200;6.080;2023-04-25T02:02:27;101035.75;;;17.45;40.93
76122;BME280;64853;53.200;6.080;2023-04-25T02:07:18;101039.88;;;17.43;41.17
76122;BME280;64853;53.200;6.080;2023-04-25T02:12:10;101043.72;;;17.42;41.02
76122;BME280;64853;53.200;6.080;2023-04-25T02:17:02;101060.25;;;17.42;41.17
76122;BME280;64853;53.200;6.080;2023-04-25T02:21:54;101061.94;;;17.38;41.13
76122;BME280;64853;53.200;6.080;2023-04-25T02:26:47;101079.00;;;17.35;41.18
76122;BME280;64853;53.200;6.080;2023-04-25T02:31:39;101084.00;;;17.33;41.21
76122;BME280;64853;53.200;6.080;2023-04-25T02:36:31;101064.69;;;17.27;41.06
76122;BME280;64853;53.200;6.080;2023-04-25T02:41:25;101075.72;;;17.27;41.24
76122;BME280;64853;53.200;6.080;2023-04-25T02:46:17;101062.50;;;17.24;41.35
76122;BME280;64853;53.200;6.080;2023-04-25T02:51:08;101050.94;;;17.22;41.27
76122;BME280;64853;53.200;6.080;2023-04-25T02:56:00;101060.00;;;17.23;41.30
76122;BME280;64853;53.200;6.080;2023-04-25T03:00:53;101055.91;;;17.20;41.03
76122;BME280;64853;53.200;6.080;2023-04-25T03:05:44;101058.13;;;17.18;41.20
76122;BME280;64853;53.200;6.080;2023-04-25T03:10:36;101051.22;;;17.16;41.19
76122;BME280;64853;53.200;6.080;2023-04-25T03:15:28;101051.22;;;17.16;41.41
76122;BME280;64853;53.200;6.080;2023-04-25T03:20:21;101061.41;;;17.15;41.30
76122;BME280;64853;53.200;6.080;2023-04-25T03:25:12;101059.75;;;17.14;41.26
76122;BME280;64853;53.200;6.080;2023-04-25T03:30:05;101063.56;;;17.13;41.26
76122;BME280;64853;53.200;6.080;2023-04-25T03:34:58;101070.19;;;17.12;41.14
76122;BME280;64853;53.200;6.080;2023-04-25T03:39:50;101087.00;;;17.10;41.08
76122;BME280;64853;53.200;6.080;2023-04-25T03:44:42;101103.22;;;17.07;40.83
76122;BME280;64853;53.200;6.080;2023-04-25T03:49:34;101084.78;;;17.07;41.18
76122;BME280;64853;53.200;6.080;2023-04-25T03:54:26;101080.38;;;17.06;41.28
76122;BME280;64853;53.200;6.080;2023-04-25T03:59:18;101088.09;;;17.04;41.16
76122;BME280;64853;53.200;6.080;2023-04-25T04:04:10;101087.81;;;17.16;41.25
76122;BME280;64853;53.200;6.080;2023-04-25T04:09:01;101103.25;;;17.43;41.05
76122;BME280;64853;53.200;6.080;2023-04-25T04:13:53;101104.03;;;17.69;40.73
76122;BME280;64853;53.200;6.080;2023-04-25T04:18:46;101116.66;;;17.91;40.42
76122;BME280;64853;53.200;6.080;2023-04-25T04:23:37;101109.47;;;18.00;40.43
76122;BME280;64853;53.200;6.080;2023-04-25T04:28:29;101113.28;;;18.14;40.28
76122;BME280;64853;53.200;6.080;2023-04-25T04:33:20;101119.59;;;18.25;40.16
76122;BME280;64853;53.200;6.080;2023-04-25T04:38:15;101123.72;;;18.33;40.25
76122;BME280;64853;53.200;6.080;2023-04-25T04:43:06;101126.13;;;18.45;40.09
76122;BME280;64853;53.200;6.080;2023-04-25T04:47:59;101133.22;;;18.56;39.83
76122;BME280;64853;53.200;6.080;2023-04-25T04:52:50;101141.22;;;18.63;39.94
76122;BME280;64853;53.200;6.080;2023-04-25T04:57:43;101148.63;;;18.72;39.68
76122;BME280;64853;53.200;6.080;2023-04-25T05:02:34;101153.00;;;18.79;39.88
76122;BME280;64853;53.200;6.080;2023-04-25T05:07:26;101152.13;;;18.88;39.70
76122;BME280;64853;53.200;6.080;2023-04-25T05:12:17;101159.56;;;18.93;39.25
76122;BME280;64853;53.200;6.080;2023-04-25T05:17:10;101162.28;;;18.98;39.45
76122;BME280;64853;53.200;6.080;2023-04-25T05:22:01;101169.94;;;19.06;39.36
76122;BME280;64853;53.200;6.080;2023-04-25T05:26:53;101175.72;;;19.10;39.19
76122;BME280;64853;53.200;6.080;2023-04-25T05:31:44;101175.41;;;19.17;39.34
76122;BME280;64853;53.200;6.080;2023-04-25T05:36:37;101183.94;;;19.20;39.14
76122;BME280;64853;53.200;6.080;2023-04-25T05:41:28;101184.72;;;19.26;39.08
76122;BME280;64853;53.200;6.080;2023-04-25T05:46:20;101197.97;;;19.29;39.23
76122;BME280;64853;53.200;6.080;2023-04-25T05:51:11;101203.78;;;19.27;38.98
76122;BME280;64853;53.200;6.080;2023-04-25T05:56:04;101176.00;;;19.14;38.83
76122;BME280;64853;53.200;6.080;2023-04-25T06:00:56;101214.81;;;19.27;38.70
76122;BME280;64853;53.200;6.080;2023-04-25T06:05:48;101214.00;;;19.27;38.68
76122;BME280;64853;53.200;6.080;2023-04-25T06:10:39;101229.97;;;19.35;39.54
76122;BME280;64853;53.200;6.080;2023-04-25T06:15:32;101230.53;;;19.37;40.26
76122;BME280;64853;53.200;6.080;2023-04-25T06:20:24;101230.47;;;19.42;40.38
76122;BME280;64853;53.200;6.080;2023-04-25T06:25:15;101233.25;;;19.42;39.43
76122;BME280;64853;53.200;6.080;2023-04-25T06:30:08;101232.59;;;19.61;40.54
76122;BME280;64853;53.200;6.080;2023-04-25T06:35:01;101237.50;;;19.69;39.54
76122;BME280;64853;53.200;6.080;2023-04-25T06:39:53;101238.66;;;19.63;39.53
76122;BME280;64853;53.200;6.080;2023-04-25T06:44:44;101236.47;;;19.55;39.64
76122;BME280;64853;53.200;6.080;2023-04-25T06:49:36;101246.50;;;19.45;39.26
76122;BME280;64853;53.200;6.080;2023-04-25T06:54:29;101258.69;;;19.39;38.96
76122;BME280;64853;53.200;6.080;2023-04-25T06:59:20;101272.53;;;19.34;39.72
76122;BME280;64853;53.200;6.080;2023-04-25T07:04:12;101279.19;;;19.33;43.14
76122;BME280;64853;53.200;6.080;2023-04-25T07:09:03;101256.50;;;19.36;41.83
76122;BME280;64853;53.200;6.080;2023-04-25T07:13:56;101262.56;;;19.38;40.46
76122;BME280;64853;53.200;6.080;2023-04-25T07:18:47;101270.34;;;19.31;40.13
76122;BME280;64853;53.200;6.080;2023-04-25T07:23:39;101280.31;;;19.27;40.52
76122;BME280;64853;53.200;6.080;2023-04-25T07:28:31;101286.16;;;19.20;40.18
76122;BME280;64853;53.200;6.080;2023-04-25T07:33:23;101285.63;;;19.13;39.70
76122;BME280;64853;53.200;6.080;2023-04-25T07:38:15;101289.81;;;19.10;39.68
76122;BME280;64853;53.200;6.080;2023-04-25T07:43:06;101297.81;;;19.12;39.75
76122;BME280;64853;53.200;6.080;2023-04-25T07:47:58;101294.19;;;19.11;39.61
76122;BME280;64853;53.200;6.080;2023-04-25T07:52:51;101298.91;;;19.11;39.24
76122;BME280;64853;53.200;6.080;2023-04-25T07:57:42;101306.38;;;19.10;39.34
76122;BME280;64853;53.200;6.080;2023-04-25T08:02:33;101307.72;;;19.13;39.59
76122;BME280;64853;53.200;6.080;2023-04-25T08:07:25;101314.66;;;19.10;39.46
76122;BME280;64853;53.200;6.080;2023-04-25T08:12:18;101348.97;;;18.99;39.50
76122;BME280;64853;53.200;6.080;2023-04-25T08:17:09;101349.25;;;18.98;39.53
76122;BME280;64853;53.200;6.080;2023-04-25T08:22:01;101358.88;;;19.00;39.50
76122;BME280;64853;53.200;6.080;2023-04-25T08:26:52;101356.13;;;19.00;39.39
76122;BME280;64853;53.200;6.080;2023-04-25T08:31:45;101352.25;;;19.01;39.36
76122;BME280;64853;53.200;6.080;2023-04-25T08:36:37;101354.44;;;19.09;39.25
76122;BME280;64853;53.200;6.080;2023-04-25T08:41:28;101348.06;;;19.14;39.20
76122;BME280;64853;53.200;6.080;2023-04-25T08:46:20;101357.44;;;19.13;39.12
76122;BME280;64853;53.200;6.080;2023-04-25T08:51:14;101370.97;;;19.20;40.82
76122;BME280;64853;53.200;6.080;2023-04-25T08:56:06;101370.94;;;19.25;39.92
76122;BME280;64853;53.200;6.080;2023-04-25T09:00:59;101384.75;;;19.25;39.69
76122;BME280;64853;53.200;6.080;2023-04-25T09:05:51;101385.28;;;19.32;40.09
76122;BME280;64853;53.200;6.080;2023-04-25T09:10:44;101393.00;;;19.35;39.88
76122;BME280;64853;53.200;6.080;2023-04-25T09:15:47;101409.31;;;19.32;39.65
76122;BME280;64853;53.200;6.080;2023-04-25T09:20:41;101404.59;;;19.32;39.64
76122;BME280;64853;53.200;6.080;2023-04-25T09:25:34;101409.84;;;19.39;39.46
76122;BME280;64853;53.200;6.080;2023-04-25T09:30:31;101423.09;;;19.42;41.12
76122;BME280;64853;53.200;6.080;2023-04-25T09:35:26;101433.06;;;19.38;40.17
76122;BME280;64853;53.200;6.080;2023-04-25T09:40:17;101438.00;;;19.46;39.83
76122;BME280;64853;53.200;6.080;2023-04-25T09:45:12;101430.81;;;19.45;39.41
76122;BME280;64853;53.200;6.080;2023-04-25T09:50:15;101431.06;;;19.54;39.47
76122;BME280;64853;53.200;6.080;2023-04-25T09:55:07;101434.13;;;19.47;40.96
76122;BME280;64853;53.200;6.080;2023-04-25T10:00:00;101457.63;;;19.44;40.38
76122;BME280;64853;53.200;6.080;2023-04-25T10:04:55;101464.81;;;19.45;40.27
76122;BME280;64853;53.200;6.080;2023-04-25T10:09:48;101469.50;;;19.45;40.37
76122;BME280;64853;53.200;6.080;2023-04-25T10:14:41;101480.28;;;19.41;40.21
76122;BME280;64853;53.200;6.080;2023-04-25T10:19:33;101481.41;;;19.35;40.09
76122;BME280;64853;53.200;6.080;2023-04-25T10:24:24;101482.53;;;19.29;39.83
76122;BME280;64853;53.200;6.080;2023-04-25T10:29:23;101481.34;;;19.66;40.26
76122;BME280;64853;53.200;6.080;2023-04-25T10:34:15;101479.09;;;19.78;38.97
76122;BME280;64853;53.200;6.080;2023-04-25T10:39:07;101477.59;;;19.96;38.92
76122;BME280;64853;53.200;6.080;2023-04-25T10:43:59;101483.91;;;20.02;39.78
76122;BME280;64853;53.200;6.080;2023-04-25T10:48:55;101484.38;;;20.19;38.90
76122;BME280;64853;53.200;6.080;2023-04-25T10:53:47;101480.72;;;20.24;38.84
76122;BME280;64853;53.200;6.080;2023-04-25T10:58:48;101489.53;;;20.31;38.94
76122;BME280;64853;53.200;6.080;2023-04-25T11:03:43;101494.31;;;20.20;39.05
76122;BME280;64853;53.200;6.080;2023-04-25T11:08:47;101498.66;;;20.32;37.74
76122;BME280;64853;53.200;6.080;2023-04-25T11:13:39;101518.59;;;20.39;38.37
76122;BME280;64853;53.200;6.080;2023-04-25T11:18:31;101519.66;;;20.43;37.90
76122;BME280;64853;53.200;6.080;2023-04-25T11:23:24;101524.59;;;20.46;37.05
76122;BME280;64853;53.200;6.080;2023-04-25T11:28:22;101538.50;;;20.41;37.92
76122;BME280;64853;53.200;6.080;2023-04-25T11:33:13;101556.75;;;20.42;39.17
76122;BME280;64853;53.200;6.080;2023-04-25T11:38:05;101570.63;;;20.37;38.55
76122;BME280;64853;53.200;6.080;2023-04-25T11:42:59;101542.94;;;20.42;38.69
76122;BME280;64853;53.200;6.080;2023-04-25T11:47:52;101543.13;;;20.51;38.25
76122;BME280;64853;53.200;6.080;2023-04-25T11:52:45;101564.94;;;20.58;38.75
76122;BME280;64853;53.200;6.080;2023-04-25T11:57:38;101560.03;;;20.49;38.27
76122;BME280;64853;53.200;6.080;2023-04-25T12:02:30;101561.19;;;20.38;37.98
76122;BME280;64853;53.200;6.080;2023-04-25T12:07:23;101550.50;;;20.16;36.02
76122;BME280;64853;53.200;6.080;2023-04-25T12:12:18;101548.63;;;20.06;35.29
76122;BME280;64853;53.200;6.080;2023-04-25T12:17:10;101546.22;;;19.89;36.51
76122;BME280;64853;53.200;6.080;2023-04-25T12:22:02;101554.78;;;19.88;36.70
76122;BME280;64853;53.200;6.080;2023-04-25T12:27:00;101564.19;;;19.92;36.06
76122;BME280;64853;53.200;6.080;2023-04-25T12:31:53;101560.25;;;20.03;36.08
76122;BME280;64853;53.200;6.080;2023-04-25T12:36:45;101553.84;;;20.13;36.30
76122;BME280;64853;53.200;6.080;2023-04-25T12:41:37;101564.88;;;20.23;35.62
76122;BME280;64853;53.200;6.080;2023-04-25T12:46:30;101568.78;;;20.17;36.00
76122;BME280;64853;53.200;6.080;2023-04-25T12:51:21;101569.63;;;20.12;36.02
76122;BME280;64853;53.200;6.080;2023-04-25T12:56:15;101586.00;;;19.98;36.29
76122;BME280;64853;53.200;6.080;2023-04-25T13:01:06;101581.03;;;19.95;36.01
76122;BME280;64853;53.200;6.080;2023-04-25T13:05:59;101579.97;;;19.86;36.18
76122;BME280;64853;53.200;6.080;2023-04-25T13:10:50;101592.94;;;19.91;36.91
76122;BME280;64853;53.200;6.080;2023-04-25T13:15:42;101612.31;;;19.86;37.62
76122;BME280;64853;53.200;6.080;2023-04-25T13:20:33;101613.94;;;19.97;37.48
76122;BME280;64853;53.200;6.080;2023-04-25T13:25:26;101609.25;;;19.92;37.11
76122;BME280;64853;53.200;6.080;2023-04-25T13:30:18;101611.75;;;19.89;37.85
76122;BME280;64853;53.200;6.080;2023-04-25T13:35:10;101606.22;;;19.89;37.36
76122;BME280;64853;53.200;6.080;2023-04-25T13:40:03;101597.91;;;19.99;37.38
76122;BME280;64853;53.200;6.080;2023-04-25T13:44:57;101601.25;;;19.96;37.75
76122;BME280;64853;53.200;6.080;2023-04-25T13:49:48;101608.47;;;19.87;37.97
76122;BME280;64853;53.200;6.080;2023-04-25T13:54:39;101622.03;;;19.78;38.25
76122;BME280;64853;53.200;6.080;2023-04-25T13:59:31;101626.19;;;19.70;38.60
76122;BME280;64853;53.200;6.080;2023-04-25T14:04:24;101628.94;;;19.70;38.65
76122;BME280;64853;53.200;6.080;2023-04-25T14:09:16;101634.16;;;19.87;38.68
76122;BME280;64853;53.200;6.080;2023-04-25T14:14:07;101625.84;;;19.97;38.02
76122;BME280;64853;53.200;6.080;2023-04-25T14:18:59;101627.25;;;19.95;37.50
76122;BME280;64853;53.200;6.080;2023-04-25T14:23:52;101628.38;;;19.89;37.53
76122;BME280;64853;53.200;6.080;2023-04-25T14:28:43;101616.72;;;19.92;36.46
76122;BME280;64853;53.200;6.080;2023-04-25T14:33:35;101631.97;;;19.84;37.61
76122;BME280;64853;53.200;6.080;2023-04-25T14:38:28;101650.22;;;19.75;36.98
76122;BME280;64853;53.200;6.080;2023-04-25T14:43:20;101653.03;;;19.70;37.97
76122;BME280;64853;53.200;6.080;2023-04-25T14:48:12;101646.66;;;19.69;38.08
76122;BME280;64853;53.200;6.080;2023-04-25T14:53:03;101659.91;;;19.67;36.98
76122;BME280;64853;53.200;6.080;2023-04-25T14:57:55;101656.06;;;19.68;38.01
76122;BME280;64853;53.200;6.080;2023-04-25T15:02:48;101670.44;;;19.60;38.51
76122;BME280;64853;53.200;6.080;2023-04-25T15:07:40;101667.13;;;19.68;38.53
76122;BME280;64853;53.200;6.080;2023-04-25T15:12:32;101685.94;;;19.66;38.45
76122;BME280;64853;53.200;6.080;2023-04-25T15:17:23;101679.84;;;19.64;37.59
76122;BME280;64853;53.200;6.080;2023-04-25T15:22:16;101675.44;;;19.63;38.21
76122;BME280;64853;53.200;6.080;2023-04-25T15:27:07;101660.78;;;19.62;37.84
76122;BME280;64853;53.200;6.080;2023-04-25T15:31:59;101677.06;;;19.74;37.81
76122;BME280;64853;53.200;6.080;2023-04-25T15:36:50;101674.31;;;19.74;37.96
76122;BME280;64853;53.200;6.080;2023-04-25T15:41:43;101676.81;;;19.71;37.51
76122;BME280;64853;53.200;6.080;2023-04-25T15:46:35;101673.19;;;19.65;37.51
76122;BME280;64853;53.200;6.080;2023-04-25T15:51:26;101670.44;;;19.60;39.14
76122;BME280;64853;53.200;6.080;2023-04-25T15:56:17;101672.34;;;19.54;38.95
76122;BME280;64853;53.200;6.080;2023-04-25T16:01:10;101677.88;;;19.54;39.46
76122;BME280;64853;53.200;6.080;2023-04-25T16:06:02;101682.03;;;19.57;39.75
76122;BME280;64853;53.200;6.080;2023-04-25T16:10:53;101675.69;;;19.56;39.80
76122;BME280;64853;53.200;6.080;2023-04-25T16:15:45;101682.59;;;19.43;40.11
76122;BME280;64853;53.200;6.080;2023-04-25T16:20:38;101687.56;;;19.46;39.93
76122;BME280;64853;53.200;6.080;2023-04-25T16:25:30;101699.19;;;19.64;39.64
76122;BME280;64853;53.200;6.080;2023-04-25T16:30:21;101694.78;;;19.68;39.80
76122;BME280;64853;53.200;6.080;2023-04-25T16:35:13;101695.31;;;19.75;40.33
76122;BME280;64853;53.200;6.080;2023-04-25T16:40:06;101701.13;;;19.79;39.08
76122;BME280;64853;53.200;6.080;2023-04-25T16:44:59;101697.53;;;19.83;39.19
76122;BME280;64853;53.200;6.080;2023-04-25T16:49:50;101698.91;;;19.76;39.60
76122;BME280;64853;53.200;6.080;2023-04-25T16:54:42;101708.88;;;19.77;39.23
76122;BME280;64853;53.200;6.080;2023-04-25T16:59:36;101703.88;;;19.79;39.11
76122;BME280;64853;53.200;6.080;2023-04-25T17:04:27;101697.53;;;19.73;38.51
76122;BME280;64853;53.200;6.080;2023-04-25T17:09:19;101708.59;;;19.73;39.65
76122;BME280;64853;53.200;6.080;2023-04-25T17:14:10;101719.09;;;19.76;39.58
76122;BME280;64853;53.200;6.080;2023-04-25T17:19:04;101709.13;;;19.80;39.33
76122;BME280;64853;53.200;6.080;2023-04-25T17:23:56;101714.66;;;19.80;39.48
76122;BME280;64853;53.200;6.080;2023-04-25T17:28:48;101709.41;;;19.79;39.55
76122;BME280;64853;53.200;6.080;2023-04-25T17:33:40;101709.13;;;19.70;40.23
76122;BME280;64853;53.200;6.080;2023-04-25T17:38:33;101727.09;;;19.78;40.10
76122;BME280;64853;53.200;6.080;2023-04-25T17:43:25;101730.72;;;19.83;39.99
76122;BME280;64853;53.200;6.080;2023-04-25T17:48:16;101731.25;;;19.80;40.47
76122;BME280;64853;53.200;6.080;2023-04-25T17:53:08;101731.56;;;19.74;40.33
76122;BME280;64853;53.200;6.080;2023-04-25T17:58:01;101742.59;;;19.74;40.21
76122;BME280;64853;53.200;6.080;2023-04-25T18:02:52;101751.72;;;19.69;40.57
76122;BME280;64853;53.200;6.080;2023-04-25T18:07:43;101755.59;;;19.63;40.64
76122;BME280;64853;53.200;6.080;2023-04-25T18:12:35;101758.63;;;19.56;40.52
76122;BME280;64853;53.200;6.080;2023-04-25T18:17:28;101759.72;;;19.55;40.19
76122;BME280;64853;53.200;6.080;2023-04-25T18:22:20;101766.91;;;19.56;41.77
76122;BME280;64853;53.200;6.080;2023-04-25T18:27:11;101762.78;;;19.69;42.66
76122;BME280;64853;53.200;6.080;2023-04-25T18:32:03;101762.25;;;19.72;41.57
76122;BME280;64853;53.200;6.080;2023-04-25T18:36:56;101765.81;;;19.73;41.66
76122;BME280;64853;53.200;6.080;2023-04-25T18:41:48;101784.91;;;19.74;41.65
76122;BME280;64853;53.200;6.080;2023-04-25T18:46:39;101791.53;;;19.73;41.73
76122;BME280;64853;53.200;6.080;2023-04-25T18:51:32;101792.38;;;19.74;41.59
76122;BME280;64853;53.200;6.080;2023-04-25T18:56:26;101789.88;;;19.72;42.09
76122;BME280;64853;53.200;6.080;2023-04-25T19:01:18;101794.03;;;19.75;42.09
76122;BME280;64853;53.200;6.080;2023-04-25T19:06:10;101802.03;;;19.76;44.11
76122;BME280;64853;53.200;6.080;2023-04-25T19:11:01;101805.38;;;19.83;44.40
76122;BME280;64853;53.200;6.080;2023-04-25T19:15:56;101813.94;;;19.87;44.24
76122;BME280;64853;53.200;6.080;2023-04-25T19:20:48;101813.38;;;19.90;44.30
76122;BME280;64853;53.200;6.080;2023-04-25T19:25:39;101818.09;;;19.95;43.78
76122;BME280;64853;53.200;6.080;2023-04-25T19:30:31;101817.81;;;19.96;43.72
76122;BME280;64853;53.200;6.080;2023-04-25T19:35:24;101820.31;;;19.98;43.06
76122;BME280;64853;53.200;6.080;2023-04-25T19:40:19;101824.75;;;19.99;43.12
76122;BME280;64853;53.200;6.080;2023-04-25T19:45:11;101813.94;;;19.97;42.61
76122;BME280;64853;53.200;6.080;2023-04-25T19:50:04;101813.09;;;19.97;41.98
76122;BME280;64853;53.200;6.080;2023-04-25T19:54:58;101823.34;;;19.96;42.22
76122;BME280;64853;53.200;6.080;2023-04-25T19:59:51;101833.59;;;19.96;41.92
76122;BME280;64853;53.200;6.080;2023-04-25T20:04:43;101828.06;;;19.96;41.51
76122;BME280;64853;53.200;6.080;2023-04-25T20:09:34;101825.84;;;19.93;41.31
76122;BME280;64853;53.200;6.080;2023-04-25T20:14:27;101825.81;;;19.88;41.20
76122;BME280;64853;53.200;6.080;2023-04-25T20:19:18;101819.19;;;19.83;41.23
76122;BME280;64853;53.200;6.080;2023-04-25T20:24:10;101821.97;;;19.78;41.24
76122;BME280;64853;53.200;6.080;2023-04-25T20:29:01;101821.41;;;19.71;40.82
76122;BME280;64853;53.200;6.080;2023-04-25T20:33:54;101820.28;;;19.67;40.96
76122;BME280;64853;53.200;6.080;2023-04-25T20:38:46;101816.41;;;19.63;41.16
76122;BME280;64853;53.200;6.080;2023-04-25T20:43:37;101826.09;;;19.60;41.21
76122;BME280;64853;53.200;6.080;2023-04-25T20:48:29;101813.06;;;19.56;40.62
76122;BME280;64853;53.200;6.080;2023-04-25T20:53:22;101810.28;;;19.51;40.41
76122;BME280;64853;53.200;6.080;2023-04-25T20:58:13;101811.38;;;19.44;40.67
76122;BME280;64853;53.200;6.080;2023-04-25T21:03:05;101816.91;;;19.39;40.64
76122;BME280;64853;53.200;6.080;2023-04-25T21:07:58;101816.91;;;19.34;40.17
76122;BME280;64853;53.200;6.080;2023-04-25T21:12:50;101811.34;;;19.29;40.23
76122;BME280;64853;53.200;6.080;2023-04-25T21:17:43;101817.72;;;19.24;40.29
76122;BME280;64853;53.200;6.080;2023-04-25T21:22:36;101816.59;;;19.20;40.15
76122;BME280;64853;53.200;6.080;2023-04-25T21:27:33;101814.63;;;19.16;39.97
76122;BME280;64853;53.200;6.080;2023-04-25T21:32:27;101817.38;;;19.10;39.09
76122;BME280;64853;53.200;6.080;2023-04-25T21:37:18;101827.03;;;19.08;39.42
76122;BME280;64853;53.200;6.080;2023-04-25T21:42:10;101828.97;;;19.02;39.15
76122;BME280;64853;53.200;6.080;2023-04-25T21:47:02;101824.25;;;18.98;39.23
76122;BME280;64853;53.200;6.080;2023-04-25T21:51:55;101820.34;;;18.93;39.49
76122;BME280;64853;53.200;6.080;2023-04-25T21:56:46;101822.84;;;18.90;39.28
76122;BME280;64853;53.200;6.080;2023-04-25T22:01:38;101828.91;;;18.87;39.35
76122;BME280;64853;53.200;6.080;2023-04-25T22:06:29;101824.44;;;18.81;39.86
76122;BME280;64853;53.200;6.080;2023-04-25T22:11:22;101831.28;;;18.78;39.58
76122;BME280;64853;53.200;6.080;2023-04-25T22:16:15;101824.66;;;18.74;39.75
76122;BME280;64853;53.200;6.080;2023-04-25T22:21:06;101832.63;;;18.70;39.21
76122;BME280;64853;53.200;6.080;2023-04-25T22:25:58;101835.97;;;18.67;39.30
76122;BME280;64853;53.200;6.080;2023-04-25T22:30:51;101828.22;;;18.64;39.40
76122;BME280;64853;53.200;6.080;2023-04-25T22:35:42;101823.22;;;18.61;39.29
76122;BME280;64853;53.200;6.080;2023-04-25T22:40:34;101829.53;;;18.56;39.27
76122;BME280;64853;53.200;6.080;2023-04-25T22:45:25;101823.69;;;18.53;39.21
76122;BME280;64853;53.200;6.080;2023-04-25T22:50:18;101831.97;;;18.48;39.29
76122;BME280;64853;53.200;6.080;2023-04-25T22:55:10;101835.25;;;18.45;39.37
76122;BME280;64853;53.200;6.080;2023-04-25T23:00:02;101840.22;;;18.43;39.55
76122;BME280;64853;53.200;6.080;2023-04-25T23:04:58;101852.59;;;18.40;39.20
76122;BME280;64853;53.200;6.080;2023-04-25T23:09:52;101850.09;;;18.38;39.48
76122;BME280;64853;53.200;6.080;2023-04-25T23:14:43;101866.09;;;18.36;39.27
76122;BME280;64853;53.200;6.080;2023-04-25T23:19:35;101857.53;;;18.33;39.23
76122;BME280;64853;53.200;6.080;2023-04-25T23:24:27;101863.84;;;18.28;39.19
76122;BME280;64853;53.200;6.080;2023-04-25T23:29:19;101863.28;;;18.26;39.49
76122;BME280;64853;53.200;6.080;2023-04-25T23:34:11;101861.06;;;18.23;39.54
76122;BME280;64853;53.200;6.080;2023-04-25T23:39:03;101863.22;;;18.21;39.61
76122;BME280;64853;53.200;6.080;2023-04-25T23:43:54;101858.81;;;18.20;39.85
76122;BME280;64853;53.200;6.080;2023-04-25T23:48:47;101853.84;;;18.17;39.62
76122;BME280;64853;53.200;6.080;2023-04-25T23:53:38;101856.00;;;18.15;39.63
76122;BME280;64853;53.200;6.080;2023-04-25T23:58:30;101862.06;;;18.12;39.51
